createdAt,value
2019-05-30T00:00:05.731Z,8.37
2019-05-30T00:02:21.994Z,6.67
2019-05-30T00:04:54.117Z,6.67
2019-05-30T00:07:25.223Z,9.97
2019-05-30T00:09:56.299Z,7.83
2019-05-30T00:12:34.209Z,7.57
2019-05-30T00:15:05.897Z,8.97
2019-05-30T00:17:37.082Z,9.67
2019-05-30T00:20:09.433Z,5.57
2019-05-30T00:22:42.945Z,7.77
2019-05-30T00:25:16.783Z,7.73
2019-05-30T00:27:49.736Z,8.50
2019-05-30T00:30:24.753Z,8.90
2019-05-30T00:32:53.942Z,10.30
2019-05-30T00:35:24.838Z,7.83
2019-05-30T00:37:55.631Z,9.20
2019-05-30T00:40:25.806Z,6.73
2019-05-30T00:42:57.807Z,7.37
2019-05-30T00:45:28.978Z,8.47
2019-05-30T00:48:00.042Z,8.10
2019-05-30T00:50:30.019Z,6.10
2019-05-30T00:53:02.911Z,12.17
2019-05-30T00:55:35.854Z,9.70
2019-05-30T00:58:07.508Z,9.43
2019-05-30T01:00:43.587Z,6.07
2019-05-30T01:03:10.617Z,8.63
2019-05-30T01:05:41.860Z,8.47
2019-05-30T01:08:14.712Z,8.93
2019-05-30T01:10:44.754Z,16.57
2019-05-30T01:13:17.059Z,8.67
2019-05-30T01:15:56.860Z,6.90
2019-05-30T01:18:28.049Z,11.93
2019-05-30T01:20:59.156Z,8.57
2019-05-30T01:23:31.851Z,9.57
2019-05-30T01:26:05.472Z,12.63
2019-05-30T01:28:39.395Z,7.57
2019-05-30T01:31:11.114Z,10.47
2019-05-30T01:33:45.650Z,13.03
2019-05-30T01:36:16.857Z,14.23
2019-05-30T01:38:48.000Z,7.23
2019-05-30T01:41:24.001Z,9.77
2019-05-30T01:43:56.372Z,9.10
2019-05-30T01:46:27.569Z,10.50
2019-05-30T01:48:58.167Z,10.50
2019-05-30T01:51:33.412Z,7.07
2019-05-30T01:54:06.614Z,10.63
2019-05-30T01:56:37.572Z,8.47
2019-05-30T01:59:08.901Z,10.77
2019-05-30T02:01:40.365Z,8.60
2019-05-30T02:04:13.108Z,11.03
2019-05-30T02:06:44.454Z,10.30
2019-05-30T02:09:14.402Z,7.67
2019-05-30T02:11:46.697Z,8.77
2019-05-30T02:14:22.831Z,8.00
2019-05-30T02:16:52.702Z,11.23
2019-05-30T02:19:23.681Z,12.53
2019-05-30T02:21:55.094Z,11.13
2019-05-30T02:24:26.106Z,10.53
2019-05-30T02:26:58.350Z,12.17
2019-05-30T02:29:29.255Z,9.77
2019-05-30T02:32:00.827Z,9.97
2019-05-30T02:34:30.802Z,10.73
2019-05-30T02:37:03.435Z,8.17
2019-05-30T02:39:36.076Z,10.87
2019-05-30T02:42:09.409Z,11.15
2019-05-30T02:44:39.535Z,11.67
2019-05-30T02:47:12.152Z,9.73
2019-05-30T02:49:44.742Z,12.23
2019-05-30T02:52:16.071Z,11.48
2019-05-30T02:54:47.114Z,10.87
2019-05-30T02:57:18.171Z,9.80
2019-05-30T02:59:48.035Z,11.53
2019-05-30T03:02:18.610Z,9.77
2019-05-30T03:04:52.637Z,12.90
2019-05-30T03:07:26.077Z,10.03
2019-05-30T03:09:59.173Z,14.15
2019-05-30T03:12:31.630Z,6.47
2019-05-30T03:15:02.567Z,8.33
2019-05-30T03:17:35.579Z,8.53
2019-05-30T03:20:17.985Z,7.33
2019-05-30T03:22:40.313Z,10.27
2019-05-30T03:25:16.145Z,19.12
2019-05-30T03:27:46.516Z,9.30
2019-05-30T03:30:26.735Z,9.40
2019-05-30T03:33:24.650Z,8.00
2019-05-30T03:35:29.314Z,7.55
2019-05-30T03:37:55.546Z,9.97
2019-05-30T03:40:28.233Z,10.80
2019-05-30T03:42:58.091Z,10.00
2019-05-30T03:48:04.287Z,10.43
2019-05-30T03:50:38.446Z,10.63
2019-05-30T03:53:13.803Z,10.43
2019-05-30T03:55:46.447Z,9.57
2019-05-30T03:58:32.229Z,9.00
2019-05-30T04:01:08.288Z,9.98
2019-05-30T04:04:06.435Z,9.00
2019-05-30T04:06:49.655Z,10.43
2019-05-30T04:09:25.185Z,7.37
2019-05-30T04:12:19.991Z,9.97
2019-05-30T04:14:53.146Z,7.73
2019-05-30T04:17:23.073Z,8.47
2019-05-30T04:20:20.546Z,7.97
2019-05-30T04:22:47.678Z,12.13
2019-05-30T04:25:18.555Z,8.83
2019-05-30T04:27:49.876Z,5.97
2019-05-30T04:30:20.866Z,12.37
2019-05-30T04:33:15.733Z,6.20
2019-05-30T04:35:28.057Z,6.47
2019-05-30T04:37:58.988Z,9.03
2019-05-30T04:40:31.552Z,5.90
2019-05-30T04:43:02.406Z,7.80
2019-05-30T04:45:33.618Z,8.07
2019-05-30T04:48:07.333Z,8.18
2019-05-30T04:50:36.670Z,10.00
2019-05-30T04:53:07.819Z,9.57
2019-05-30T04:55:40.730Z,8.57
2019-05-30T04:58:13.348Z,10.13
2019-05-30T05:00:46.379Z,9.63
2019-05-30T05:03:43.443Z,9.78
2019-05-30T05:05:55.443Z,8.73
2019-05-30T05:08:44.787Z,8.13
2019-05-30T05:11:18.655Z,8.15
2019-05-30T05:13:49.340Z,7.47
2019-05-30T05:16:31.341Z,9.10
2019-05-30T05:18:53.225Z,10.27
2019-05-30T05:21:25.452Z,9.97
2019-05-30T05:23:56.827Z,10.33
2019-05-30T05:26:25.858Z,12.17
2019-05-30T05:28:58.581Z,10.93
2019-05-30T05:33:59.675Z,10.47
2019-05-30T05:36:31.125Z,9.83
2019-05-30T05:39:02.546Z,10.37
2019-05-30T05:41:33.660Z,11.97
2019-05-30T05:44:04.855Z,7.90
2019-05-30T05:46:36.834Z,11.80
2019-05-30T05:49:08.267Z,14.93
2019-05-30T05:51:41.395Z,10.20
2019-05-30T05:54:14.574Z,9.77
2019-05-30T05:56:47.791Z,9.87
2019-05-30T05:59:20.952Z,9.47
2019-05-30T06:01:52.794Z,8.83
2019-05-30T06:04:25.353Z,7.67
2019-05-30T06:06:58.299Z,8.13
2019-05-30T06:09:28.765Z,7.93
2019-05-30T06:12:01.343Z,8.90
2019-05-30T06:14:32.279Z,7.63
2019-05-30T06:17:03.715Z,16.73
2019-05-30T06:19:46.060Z,30.90
2019-05-30T06:22:29.495Z,13.63
2019-05-30T06:24:59.516Z,11.43
2019-05-30T06:27:30.691Z,7.17
2019-05-30T06:30:04.534Z,6.70
2019-05-30T06:32:35.890Z,7.40
2019-05-30T06:35:09.692Z,14.33
2019-05-30T06:37:40.825Z,11.83
2019-05-30T06:40:14.341Z,10.05
2019-05-30T06:42:47.689Z,5.90
2019-05-30T06:45:23.643Z,5.77
2019-05-30T06:47:53.917Z,5.43
2019-05-30T06:50:25.325Z,4.90
2019-05-30T06:52:56.770Z,5.67
2019-05-30T06:55:27.281Z,7.00
2019-05-30T06:57:57.096Z,7.90
2019-05-30T07:00:28.103Z,7.30
2019-05-30T07:03:00.444Z,4.53
2019-05-30T07:05:32.246Z,3.47
2019-05-30T07:08:05.178Z,5.63
2019-05-30T07:10:36.632Z,22.27
2019-05-30T07:13:07.548Z,5.30
2019-05-30T07:15:37.504Z,5.87
2019-05-30T07:18:09.098Z,2.97
2019-05-30T07:20:40.606Z,7.93
2019-05-30T07:23:12.993Z,6.77
2019-05-30T07:25:46.395Z,6.25
2019-05-30T07:28:23.708Z,5.80
2019-05-30T07:30:55.349Z,14.77
2019-05-30T07:36:00.450Z,7.20
2019-05-30T07:38:32.532Z,4.27
2019-05-30T07:41:05.439Z,6.97
2019-05-30T07:43:36.322Z,8.37
2019-05-30T07:46:07.770Z,6.20
2019-05-30T07:48:38.588Z,6.17
2019-05-30T07:51:10.194Z,4.50
2019-05-30T07:53:42.687Z,5.80
2019-05-30T07:56:15.425Z,8.03
2019-05-30T07:58:46.841Z,9.07
2019-05-30T08:01:19.397Z,5.08
2019-05-30T08:03:52.598Z,6.13
2019-05-30T08:06:27.408Z,6.23
2019-05-30T08:09:02.202Z,6.93
2019-05-30T08:11:35.123Z,3.33
2019-05-30T08:14:07.544Z,4.33
2019-05-30T08:16:40.332Z,4.07
2019-05-30T08:19:22.137Z,8.00
2019-05-30T08:21:51.170Z,7.37
2019-05-30T08:24:22.522Z,4.58
2019-05-30T08:26:53.746Z,5.57
2019-05-30T08:29:28.068Z,12.20
2019-05-30T08:31:58.259Z,4.90
2019-05-30T08:34:32.876Z,7.57
2019-05-30T08:37:04.096Z,5.43
2019-05-30T08:39:35.298Z,4.97
2019-05-30T08:42:07.277Z,7.67
2019-05-30T08:44:38.142Z,6.23
2019-05-30T08:47:11.200Z,5.47
2019-05-30T08:49:42.454Z,7.97
2019-05-30T08:52:15.459Z,11.23
2019-05-30T08:54:46.440Z,5.20
2019-05-30T08:57:17.659Z,3.23
2019-05-30T08:59:48.171Z,5.33
2019-05-30T09:02:21.706Z,5.60
2019-05-30T09:04:56.156Z,7.27
2019-05-30T09:07:27.187Z,5.93
2019-05-30T09:09:57.588Z,7.60
2019-05-30T09:12:28.791Z,6.47
2019-05-30T09:15:02.302Z,5.63
2019-05-30T09:17:33.535Z,7.00
2019-05-30T09:20:08.030Z,6.03
2019-05-30T09:22:39.805Z,10.10
2019-05-30T09:25:13.688Z,5.67
2019-05-30T09:27:45.203Z,14.67
2019-05-30T09:30:19.136Z,3.47
2019-05-30T09:32:50.398Z,8.97
2019-05-30T09:35:23.409Z,7.30
2019-05-30T09:37:57.441Z,13.97
2019-05-30T09:40:28.224Z,8.87
2019-05-30T09:42:58.229Z,7.93
2019-05-30T09:45:29.891Z,8.60
2019-05-30T09:48:02.665Z,5.77
2019-05-30T09:50:34.872Z,4.43
2019-05-30T09:53:06.257Z,4.53
2019-05-30T09:55:36.177Z,3.40
2019-05-30T09:58:09.592Z,6.33
2019-05-30T10:00:42.876Z,8.00
2019-05-30T10:03:12.795Z,5.40
2019-05-30T10:05:45.141Z,5.07
2019-05-30T10:08:17.415Z,7.17
2019-05-30T10:10:49.593Z,3.43
2019-05-30T10:13:23.407Z,2.50
2019-05-30T10:15:56.633Z,3.60
2019-05-30T10:18:30.652Z,7.43
2019-05-30T10:21:02.180Z,5.73
2019-05-30T10:23:33.207Z,2.97
2019-05-30T10:26:06.277Z,3.47
2019-05-30T10:28:36.318Z,7.97
2019-05-30T10:31:08.532Z,5.37
2019-05-30T10:33:37.914Z,4.47
2019-05-30T10:36:14.424Z,7.27
2019-05-30T10:38:42.842Z,6.03
2019-05-30T10:41:14.385Z,3.90
2019-05-30T10:43:47.450Z,3.80
2019-05-30T10:46:17.617Z,9.27
2019-05-30T10:48:49.134Z,2.87
2019-05-30T10:51:22.039Z,11.23
2019-05-30T10:53:57.788Z,7.17
2019-05-30T10:56:32.207Z,5.50
2019-05-30T10:59:06.177Z,5.53
2019-05-30T11:01:41.019Z,4.30
2019-05-30T11:04:12.239Z,3.30
2019-05-30T11:07:11.323Z,2.83
2019-05-30T11:09:42.831Z,2.97
2019-05-30T11:12:13.072Z,3.83
2019-05-30T11:14:43.674Z,6.50
2019-05-30T11:17:15.681Z,6.60
2019-05-30T11:19:49.873Z,5.43
2019-05-30T11:22:21.302Z,5.20
2019-05-30T11:25:12.138Z,4.13
2019-05-30T11:27:45.107Z,5.07
2019-05-30T11:30:18.470Z,5.33
2019-05-30T11:32:52.971Z,6.33
2019-05-30T11:35:26.747Z,2.97
2019-05-30T11:37:57.309Z,4.57
2019-05-30T11:40:29.850Z,5.13
2019-05-30T11:43:01.223Z,6.37
2019-05-30T11:45:32.527Z,3.80
2019-05-30T11:48:24.365Z,3.93
2019-05-30T11:50:57.956Z,6.33
2019-05-30T11:53:30.489Z,1.93
2019-05-30T11:56:03.006Z,4.77
2019-05-30T11:58:34.317Z,5.23
2019-05-30T12:01:06.341Z,5.33
2019-05-30T12:06:12.999Z,2.67
2019-05-30T12:08:43.891Z,5.20
2019-05-30T12:11:15.040Z,9.77
2019-05-30T12:13:44.457Z,4.90
2019-05-30T12:16:15.927Z,4.60
2019-05-30T12:18:47.868Z,5.60
2019-05-30T12:21:20.443Z,5.87
2019-05-30T12:23:54.462Z,3.30
2019-05-30T12:26:24.496Z,9.03
2019-05-30T12:28:55.957Z,7.90
2019-05-30T12:31:26.038Z,3.63
2019-05-30T12:33:58.489Z,3.20
2019-05-30T12:36:29.700Z,3.87
2019-05-30T12:39:00.804Z,4.13
2019-05-30T12:41:34.459Z,4.30
2019-05-30T12:44:06.951Z,7.13
2019-05-30T12:46:36.958Z,4.13
2019-05-30T12:49:10.045Z,2.50
2019-05-30T12:51:43.183Z,5.27
2019-05-30T12:54:13.909Z,3.57
2019-05-30T12:56:44.035Z,7.63
2019-05-30T12:59:16.267Z,3.10
2019-05-30T13:01:47.562Z,3.87
2019-05-30T13:04:19.765Z,3.83
2019-05-30T13:06:54.248Z,4.20
2019-05-30T13:09:27.311Z,8.07
2019-05-30T13:12:01.093Z,4.17
2019-05-30T13:14:30.982Z,2.67
2019-05-30T13:17:01.841Z,5.30
2019-05-30T13:19:35.671Z,2.93
2019-05-30T13:22:07.712Z,2.47
2019-05-30T13:24:42.108Z,3.13
2019-05-30T13:27:14.471Z,24.63
2019-05-30T13:29:45.610Z,2.00
2019-05-30T13:32:20.894Z,3.63
2019-05-30T13:34:53.864Z,1.93
2019-05-30T13:37:23.831Z,3.27
2019-05-30T13:39:54.674Z,7.20
2019-05-30T13:42:25.843Z,5.73
2019-05-30T13:44:57.771Z,5.87
2019-05-30T13:47:29.165Z,3.83
2019-05-30T13:50:02.991Z,3.30
2019-05-30T13:52:37.790Z,3.67
2019-05-30T13:55:13.373Z,2.57
2019-05-30T13:57:43.526Z,5.77
2019-05-30T14:00:17.793Z,3.40
2019-05-30T14:02:50.379Z,5.07
2019-05-30T14:05:21.382Z,3.60
2019-05-30T14:07:55.124Z,4.03
2019-05-30T14:10:26.555Z,5.77
2019-05-30T14:12:58.387Z,15.27
2019-05-30T14:15:29.656Z,2.90
2019-05-30T14:20:34.707Z,3.70
2019-05-30T14:23:07.361Z,7.37
2019-05-30T14:25:38.874Z,4.80
2019-05-30T14:28:12.120Z,2.47
2019-05-30T14:30:43.736Z,3.90
2019-05-30T14:33:15.771Z,3.27
2019-05-30T14:35:49.195Z,4.73
2019-05-30T14:38:22.178Z,7.13
2019-05-30T14:40:52.166Z,2.07
2019-05-30T14:43:25.520Z,14.33
2019-05-30T14:45:58.585Z,6.77
2019-05-30T14:48:30.074Z,1.97
2019-05-30T14:51:02.850Z,4.33
2019-05-30T14:53:36.372Z,3.25
2019-05-30T14:56:09.079Z,4.13
2019-05-30T14:58:40.302Z,8.80
2019-05-30T15:01:13.393Z,7.62
2019-05-30T15:03:43.577Z,4.93
2019-05-30T15:06:17.721Z,4.65
2019-05-30T15:08:51.608Z,3.37
2019-05-30T15:11:24.057Z,7.33
2019-05-30T15:13:53.944Z,7.33
2019-05-30T15:16:27.592Z,8.77
2019-05-30T15:18:59.916Z,5.00
2019-05-30T15:21:34.971Z,4.87
2019-05-30T15:24:07.742Z,5.13
2019-05-30T15:26:39.051Z,2.53
2019-05-30T15:29:10.404Z,4.50
2019-05-30T15:31:43.158Z,2.20
2019-05-30T15:34:15.309Z,4.97
2019-05-30T15:36:49.867Z,6.63
2019-05-30T15:39:32.232Z,6.40
2019-05-30T15:41:55.418Z,4.23
2019-05-30T15:44:26.555Z,2.73
2019-05-30T15:47:00.838Z,4.53
2019-05-30T15:49:35.751Z,4.37
2019-05-30T15:52:06.247Z,4.37
2019-05-30T15:54:39.175Z,7.40
2019-05-30T15:57:11.134Z,2.30
2019-05-30T15:59:42.223Z,3.53
2019-05-30T16:02:16.112Z,3.90
2019-05-30T16:04:51.725Z,4.07
2019-05-30T16:07:24.034Z,3.65
2019-05-30T16:09:55.656Z,5.70
2019-05-30T16:12:24.673Z,6.10
2019-05-30T16:14:59.381Z,2.10
2019-05-30T16:17:32.225Z,3.43
2019-05-30T16:20:06.151Z,7.73
2019-05-30T16:22:37.973Z,13.53
2019-05-30T16:25:11.064Z,5.00
2019-05-30T16:27:43.612Z,3.80
2019-05-30T16:30:19.720Z,4.05
2019-05-30T16:32:48.744Z,3.33
2019-05-30T16:35:22.245Z,3.47
2019-05-30T16:37:53.579Z,2.50
2019-05-30T16:40:22.901Z,3.42
2019-05-30T16:42:54.903Z,1.87
2019-05-30T16:45:26.765Z,2.37
2019-05-30T16:47:57.479Z,4.10
2019-05-30T16:50:29.216Z,4.87
2019-05-30T16:53:02.003Z,3.10
2019-05-30T16:55:31.989Z,2.90
2019-05-30T16:58:02.033Z,4.70
2019-05-30T17:00:36.391Z,3.00
2019-05-30T17:03:07.911Z,5.33
2019-05-30T17:05:42.667Z,2.80
2019-05-30T17:08:16.011Z,3.77
2019-05-30T17:10:49.154Z,3.83
2019-05-30T17:13:19.624Z,2.73
2019-05-30T17:15:51.161Z,4.53
2019-05-30T17:18:24.347Z,1.57
2019-05-30T17:20:56.546Z,3.63
2019-05-30T17:23:29.440Z,4.20
2019-05-30T17:26:03.830Z,5.17
2019-05-30T17:28:35.148Z,3.60
2019-05-30T17:31:07.946Z,4.27
2019-05-30T17:33:39.487Z,4.30
2019-05-30T17:36:09.498Z,2.20
2019-05-30T17:38:41.801Z,14.23
2019-05-30T17:41:14.373Z,5.30
2019-05-30T17:43:45.298Z,3.10
2019-05-30T17:46:16.520Z,7.93
2019-05-30T17:48:50.893Z,3.67
2019-05-30T17:51:21.946Z,5.40
2019-05-30T17:53:53.183Z,5.93
2019-05-30T17:56:23.970Z,9.40
2019-05-30T17:58:55.024Z,6.57
2019-05-30T18:01:28.345Z,4.83
2019-05-30T18:03:57.791Z,3.23
2019-05-30T18:06:29.371Z,3.73
2019-05-30T18:09:02.909Z,4.77
2019-05-30T18:11:32.976Z,5.47
2019-05-30T18:14:07.036Z,8.13
2019-05-30T18:16:38.643Z,6.53
2019-05-30T18:19:11.549Z,5.63
2019-05-30T18:21:41.606Z,4.70
2019-05-30T18:24:14.295Z,6.57
2019-05-30T18:26:51.543Z,8.03
2019-05-30T18:31:54.634Z,11.67
2019-05-30T18:34:28.282Z,8.77
2019-05-30T18:37:04.636Z,8.27
2019-05-30T18:39:34.455Z,10.50
2019-05-30T18:42:04.301Z,11.53
2019-05-30T18:44:39.009Z,11.60
2019-05-30T18:47:11.469Z,11.60
2019-05-30T18:49:41.517Z,9.83
2019-05-30T18:52:12.720Z,10.13
2019-05-30T18:54:46.301Z,8.70
2019-05-30T18:57:17.267Z,4.67
2019-05-30T18:59:50.070Z,7.47
2019-05-30T19:02:21.144Z,6.90
2019-05-30T19:04:52.085Z,5.90
2019-05-30T19:07:26.575Z,8.33
2019-05-30T19:09:58.694Z,7.30
2019-05-30T19:12:34.274Z,6.50
2019-05-30T19:15:13.512Z,7.13
2019-05-30T19:17:46.230Z,10.30
2019-05-30T19:20:18.340Z,12.58
2019-05-30T19:22:50.601Z,18.33
2019-05-30T19:25:20.526Z,13.87
2019-05-30T19:27:52.643Z,13.63
2019-05-30T19:30:26.433Z,9.43
2019-05-30T19:33:00.672Z,9.10
2019-05-30T19:35:33.176Z,6.23
2019-05-30T19:38:06.517Z,4.17
2019-05-30T19:40:38.016Z,22.33
2019-05-30T19:43:08.287Z,4.37
2019-05-30T19:45:41.381Z,8.13
2019-05-30T19:48:16.493Z,7.05
2019-05-30T19:50:47.363Z,5.87
2019-05-30T19:53:19.819Z,7.77
2019-05-30T19:55:53.731Z,6.53
2019-05-30T19:58:23.661Z,5.42
2019-05-30T20:00:58.321Z,5.03
2019-05-30T20:03:36.251Z,7.53
2019-05-30T20:06:00.410Z,6.33
2019-05-30T20:08:46.953Z,12.33
2019-05-30T20:11:05.087Z,16.97
2019-05-30T20:13:39.197Z,9.77
2019-05-30T20:16:13.623Z,5.80
2019-05-30T20:18:43.772Z,7.40
2019-05-30T20:21:14.794Z,154.90
2019-05-30T20:23:54.539Z,85.60
2019-05-30T20:26:20.299Z,51.40
2019-05-30T20:28:52.093Z,34.03
2019-05-30T20:31:23.470Z,17.60
2019-05-30T20:33:54.587Z,52.97
2019-05-30T20:36:27.789Z,17.10
2019-05-30T20:39:00.987Z,6.70
2019-05-30T20:41:32.217Z,6.23
2019-05-30T20:44:05.857Z,5.87
2019-05-30T20:46:37.061Z,10.17
2019-05-30T20:49:09.124Z,21.10
2019-05-30T20:51:41.207Z,21.17
2019-05-30T20:54:11.329Z,19.40
2019-05-30T20:56:42.166Z,18.00
2019-05-30T20:59:13.317Z,20.90
2019-05-30T21:01:44.283Z,17.33
2019-05-30T21:04:16.684Z,10.67
2019-05-30T21:06:50.902Z,7.13
2019-05-30T21:09:28.772Z,6.77
2019-05-30T21:11:55.363Z,8.67
2019-05-30T21:14:27.814Z,10.87
2019-05-30T21:17:00.223Z,10.93
2019-05-30T21:19:31.312Z,6.83
2019-05-30T21:22:01.176Z,11.40
2019-05-30T21:24:32.015Z,18.23
2019-05-30T21:27:05.311Z,26.50
2019-05-30T21:29:35.216Z,31.80
2019-05-30T21:32:08.810Z,18.70
2019-05-30T21:34:42.424Z,13.50
2019-05-30T21:37:14.431Z,10.40
2019-05-30T21:39:48.104Z,20.40
2019-05-30T21:42:19.403Z,49.97
2019-05-30T21:44:52.375Z,33.67
2019-05-30T21:47:24.292Z,17.37
2019-05-30T21:49:56.898Z,9.87
2019-05-30T21:52:35.362Z,9.77
2019-05-30T21:55:06.274Z,12.57
2019-05-30T21:57:39.831Z,32.80
2019-05-30T22:00:14.108Z,45.33
2019-05-30T22:02:48.655Z,56.90
2019-05-30T22:05:22.414Z,60.87
2019-05-30T22:07:55.959Z,57.57
2019-05-30T22:10:26.003Z,34.33
2019-05-30T22:13:08.971Z,17.80
2019-05-30T22:15:27.905Z,15.00
2019-05-30T22:18:00.360Z,17.75
2019-05-30T22:23:02.391Z,17.40
2019-05-30T22:25:33.439Z,11.47
2019-05-30T22:28:10.615Z,12.37
2019-05-30T22:30:42.292Z,28.73
2019-05-30T22:33:13.245Z,70.47
2019-05-30T22:38:18.681Z,25.82
2019-05-30T22:40:50.035Z,28.33
2019-05-30T22:43:25.273Z,98.97
2019-05-30T22:45:55.364Z,300.97
2019-05-30T22:48:26.799Z,139.47
2019-05-30T22:50:58.043Z,162.60
2019-05-30T22:53:31.576Z,99.00
2019-05-30T22:56:02.490Z,62.43
2019-05-30T22:58:32.649Z,37.27
2019-05-30T23:01:04.863Z,23.37
2019-05-30T23:03:37.543Z,15.83
2019-05-30T23:06:09.911Z,25.23
2019-05-30T23:08:39.818Z,23.17
2019-05-30T23:11:14.277Z,11.67
2019-05-30T23:13:47.894Z,16.83
2019-05-30T23:16:19.013Z,24.10
2019-05-30T23:18:52.574Z,16.50
2019-05-30T23:21:25.610Z,18.43
2019-05-30T23:23:57.290Z,14.27
2019-05-30T23:26:28.374Z,15.20
2019-05-30T23:28:59.432Z,19.30
2019-05-30T23:31:33.274Z,14.63
2019-05-30T23:34:06.311Z,12.70
2019-05-30T23:36:39.696Z,16.23
2019-05-30T23:39:10.786Z,13.30
2019-05-30T23:41:41.760Z,17.10
2019-05-30T23:44:12.465Z,17.83
2019-05-30T23:46:42.402Z,12.83
2019-05-30T23:49:15.298Z,9.53
2019-05-30T23:51:46.226Z,7.43
2019-05-30T23:54:16.712Z,8.37
2019-05-30T23:56:47.871Z,15.80
2019-05-30T23:59:21.029Z,64.80
